Time;durP1;ratioP1;P1;durP2;ratioP2;P2;SDS_P1;SDS_P2;PMS_P1;PMS_P2;Temp;Humidity;BMP_temperature;BMP_pressure;BME280_temperature;BME280_humidity;BME280_pressure;Samples;Min_cycle;Max_cycle;Signal;HPM_P1;HPM_P2
2023/09/05 00:02:02;;;;;;;145.63;141.10;;;;;;;;;;5023591;28;20206;-95
2023/09/05 00:04:29;;;;;;;154.90;150.15;;;;;;;;;;5025368;28;20192;-95
2023/09/05 00:06:58;;;;;;;176.52;170.93;;;;;;;;;;5025400;28;20198;-94
2023/09/05 00:09:24;;;;;;;165.63;160.70;;;;;;;;;;5023402;28;20260;-95
2023/09/05 00:11:50;;;;;;;163.52;158.55;;;;;;;;;;5023831;28;20488;-95
2023/09/05 00:14:18;;;;;;;181.48;176.13;;;;;;;;;;5025965;28;20253;-94
2023/09/05 00:16:44;;;;;;;165.48;160.52;;;;;;;;;;5030440;28;20205;-94
2023/09/05 00:19:10;;;;;;;199.10;193.15;;;;;;;;;;5030106;28;20178;-94
2023/09/05 00:21:36;;;;;;;191.13;185.27;;;;;;;;;;5025298;28;20214;-93
2023/09/05 00:24:21;;;;;;;185.35;179.65;;;;;;;;;;5024799;28;20177;-94
2023/09/05 00:26:47;;;;;;;174.40;169.20;;;;;;;;;;5028871;28;20177;-94
2023/09/05 00:29:13;;;;;;;201.02;195.05;;;;;;;;;;5039361;28;20274;-94
2023/09/05 00:31:40;;;;;;;228.23;221.55;;;;;;;;;;5039398;28;20286;-95
2023/09/05 00:34:06;;;;;;;224.98;218.40;;;;;;;;;;5037786;28;20161;-94
2023/09/05 00:36:32;;;;;;;221.10;214.32;;;;;;;;;;5029516;28;20244;-94
2023/09/05 00:39:02;;;;;;;265.17;257.27;;;;;;;;;;5028766;28;20182;-94
2023/09/05 00:41:28;;;;;;;283.10;274.58;;;;;;;;;;5027802;28;20195;-94
2023/09/05 00:43:55;;;;;;;280.90;272.42;;;;;;;;;;5024967;28;20206;-93
2023/09/05 00:46:21;;;;;;;331.35;321.48;;;;;;;;;;5027003;28;20189;-94
2023/09/05 00:48:47;;;;;;;326.98;317.40;;;;;;;;;;5025666;28;20649;-94
2023/09/05 00:51:13;;;;;;;278.08;269.95;;;;;;;;;;5026050;28;20208;-94
2023/09/05 00:53:39;;;;;;;251.77;244.50;;;;;;;;;;5031763;28;20172;-95
2023/09/05 00:56:06;;;;;;;233.90;227.02;;;;;;;;;;5035436;28;20282;-94
2023/09/05 00:58:32;;;;;;;230.02;223.30;;;;;;;;;;5033930;28;20181;-93
2023/09/05 01:00:58;;;;;;;251.60;244.13;;;;;;;;;;5030403;28;20203;-92
2023/09/05 01:03:24;;;;;;;249.73;242.50;;;;;;;;;;5025640;28;20241;-94
2023/09/05 01:05:55;;;;;;;257.50;249.75;;;;;;;;;;5022825;28;20181;-94
2023/09/05 01:08:26;;;;;;;248.90;241.65;;;;;;;;;;5023341;28;20624;-95
2023/09/05 01:11:08;;;;;;;251.40;243.95;;;;;;;;;;5041183;28;20238;-95
2023/09/05 01:13:36;;;;;;;245.60;238.35;;;;;;;;;;5042720;28;20211;-95
2023/09/05 01:16:02;;;;;;;237.93;230.80;;;;;;;;;;5042190;28;20200;-94
2023/09/05 01:18:33;;;;;;;233.05;226.18;;;;;;;;;;5024182;28;20195;-94
2023/09/05 01:21:26;;;;;;;238.43;231.27;;;;;;;;;;5022431;28;20204;-95
2023/09/05 01:24:01;;;;;;;257.02;249.38;;;;;;;;;;5020548;28;20710;-94
2023/09/05 01:26:27;;;;;;;202.70;196.77;;;;;;;;;;4987714;28;20339;-93
2023/09/05 01:28:54;;;;;;;216.25;209.88;;;;;;;;;;5021844;28;20184;-93
2023/09/05 01:31:21;;;;;;;214.57;207.52;;;;;;;;;;5021321;28;20204;-94
2023/09/05 01:33:47;;;;;;;214.93;208.52;;;;;;;;;;5021299;28;20271;-94
2023/09/05 01:36:14;;;;;;;219.95;213.43;;;;;;;;;;5021873;28;20215;-95
2023/09/05 01:38:40;;;;;;;218.07;211.68;;;;;;;;;;5021598;28;20220;-94
2023/09/05 01:41:06;;;;;;;211.02;204.68;;;;;;;;;;5022377;28;20204;-95
2023/09/05 01:43:32;;;;;;;192.00;186.38;;;;;;;;;;5021314;28;20186;-94
2023/09/05 01:45:58;;;;;;;219.07;212.60;;;;;;;;;;5021707;28;20293;-92
2023/09/05 01:48:24;;;;;;;213.48;207.02;;;;;;;;;;5020050;28;20220;-92
2023/09/05 01:50:50;;;;;;;209.80;203.68;;;;;;;;;;5004489;28;20235;-94
2023/09/05 01:53:16;;;;;;;218.27;211.63;;;;;;;;;;5002397;28;20315;-93
2023/09/05 01:55:42;;;;;;;202.80;196.80;;;;;;;;;;5001657;28;20700;-94
2023/09/05 01:58:08;;;;;;;200.98;194.90;;;;;;;;;;5016000;28;20216;-93
2023/09/05 02:00:34;;;;;;;194.32;188.52;;;;;;;;;;5021167;28;20200;-94
2023/09/05 02:03:00;;;;;;;200.45;194.57;;;;;;;;;;5021068;28;20540;-94
2023/09/05 02:05:26;;;;;;;195.02;189.27;;;;;;;;;;5020855;28;20184;-94
2023/09/05 02:07:52;;;;;;;195.48;189.55;;;;;;;;;;5020431;28;20196;-94
2023/09/05 02:10:18;;;;;;;214.63;208.05;;;;;;;;;;5033523;28;20218;-94
2023/09/05 02:12:45;;;;;;;210.95;204.75;;;;;;;;;;5040390;28;20183;-94
2023/09/05 02:15:11;;;;;;;200.00;193.93;;;;;;;;;;5040486;28;20671;-93
2023/09/05 02:17:37;;;;;;;206.32;200.20;;;;;;;;;;5039993;28;20677;-93
2023/09/05 02:20:03;;;;;;;200.52;194.60;;;;;;;;;;5040039;28;20204;-93
2023/09/05 02:22:29;;;;;;;212.83;206.57;;;;;;;;;;5040113;28;20192;-94
2023/09/05 02:24:55;;;;;;;220.70;213.95;;;;;;;;;;5039626;28;20662;-93
2023/09/05 02:27:21;;;;;;;204.55;198.18;;;;;;;;;;5039055;28;20184;-94
2023/09/05 02:29:49;;;;;;;184.50;179.05;;;;;;;;;;5025535;28;20259;-92
2023/09/05 02:32:17;;;;;;;184.65;179.07;;;;;;;;;;5020340;28;20655;-93
2023/09/05 02:34:43;;;;;;;181.38;175.95;;;;;;;;;;5019584;28;20181;-93
2023/09/05 02:37:09;;;;;;;176.48;171.15;;;;;;;;;;5020410;28;20299;-94
2023/09/05 02:39:35;;;;;;;191.57;185.90;;;;;;;;;;5020387;28;20189;-92
2023/09/05 02:42:03;;;;;;;178.30;172.85;;;;;;;;;;5020491;28;20181;-94
2023/09/05 02:44:29;;;;;;;174.43;169.23;;;;;;;;;;5020010;28;20180;-94
2023/09/05 02:46:55;;;;;;;167.30;162.20;;;;;;;;;;5019618;28;20232;-95
2023/09/05 02:49:21;;;;;;;168.43;163.38;;;;;;;;;;5019954;28;20183;-95
2023/09/05 02:51:47;;;;;;;154.83;149.93;;;;;;;;;;5019033;28;20215;-94
2023/09/05 02:54:13;;;;;;;163.75;158.82;;;;;;;;;;5019890;28;20184;-94
2023/09/05 02:56:39;;;;;;;162.00;157.03;;;;;;;;;;5018727;28;20235;-95
2023/09/05 02:59:05;;;;;;;165.33;160.23;;;;;;;;;;5019945;28;20179;-93
2023/09/05 03:01:31;;;;;;;152.97;148.37;;;;;;;;;;5000857;28;20231;-93
2023/09/05 03:03:57;;;;;;;156.00;151.30;;;;;;;;;;5000948;28;20263;-94
2023/09/05 03:06:24;;;;;;;166.87;161.80;;;;;;;;;;5013678;28;20702;-94
2023/09/05 03:08:50;;;;;;;168.47;163.40;;;;;;;;;;5012013;28;20250;-94
2023/09/05 03:11:16;;;;;;;162.23;157.33;;;;;;;;;;5012310;28;20233;-94
2023/09/05 03:13:43;;;;;;;157.17;152.40;;;;;;;;;;5009987;28;20198;-94
2023/09/05 03:16:09;;;;;;;154.47;149.43;;;;;;;;;;4999670;28;20212;-94
2023/09/05 03:18:35;;;;;;;151.30;146.77;;;;;;;;;;4997939;28;20193;-94
2023/09/05 03:21:01;;;;;;;141.23;136.90;;;;;;;;;;5000132;28;20205;-94
2023/09/05 03:23:28;;;;;;;146.90;142.30;;;;;;;;;;4999176;28;20195;-93
2023/09/05 03:25:54;;;;;;;148.37;143.33;;;;;;;;;;5010605;28;20193;-95
2023/09/05 03:28:20;;;;;;;143.30;138.90;;;;;;;;;;5016470;28;20194;-94
2023/09/05 03:30:46;;;;;;;139.47;135.23;;;;;;;;;;5007150;28;20379;-93
2023/09/05 03:33:12;;;;;;;132.70;128.63;;;;;;;;;;5016433;28;20239;-95
2023/09/05 03:35:38;;;;;;;128.17;124.23;;;;;;;;;;5022415;28;20211;-92
2023/09/05 03:38:07;;;;;;;136.30;132.13;;;;;;;;;;5022136;28;20232;-94
2023/09/05 03:40:34;;;;;;;138.27;133.98;;;;;;;;;;5023636;28;20198;-95
2023/09/05 03:43:00;;;;;;;144.80;140.40;;;;;;;;;;5037142;28;20178;-94
2023/09/05 03:45:30;;;;;;;158.40;153.50;;;;;;;;;;5039923;28;20179;-95
2023/09/05 03:47:56;;;;;;;155.83;150.93;;;;;;;;;;5039764;28;20191;-92
2023/09/05 03:50:22;;;;;;;141.80;137.47;;;;;;;;;;5040040;28;20200;-93
2023/09/05 03:52:48;;;;;;;140.17;135.90;;;;;;;;;;5039861;28;20182;-93
2023/09/05 03:55:14;;;;;;;139.57;135.27;;;;;;;;;;5027419;28;20240;-94
2023/09/05 03:57:40;;;;;;;138.07;133.80;;;;;;;;;;5023408;28;20178;-93
2023/09/05 04:00:07;;;;;;;138.37;134.03;;;;;;;;;;5023211;28;20223;-93
2023/09/05 04:02:33;;;;;;;135.73;131.57;;;;;;;;;;5004421;28;20546;-93
2023/09/05 04:04:59;;;;;;;134.33;129.93;;;;;;;;;;5021950;28;20938;-93
2023/09/05 04:07:25;;;;;;;141.07;136.43;;;;;;;;;;5022044;28;20198;-94
2023/09/05 04:09:53;;;;;;;141.60;137.00;;;;;;;;;;5017630;28;20249;-93
2023/09/05 04:12:19;;;;;;;138.60;134.33;;;;;;;;;;5014695;28;20288;-94
2023/09/05 04:14:45;;;;;;;128.00;124.10;;;;;;;;;;5020947;28;20209;-94
2023/09/05 04:17:11;;;;;;;130.47;125.87;;;;;;;;;;5020876;28;20205;-93
2023/09/05 04:19:37;;;;;;;129.93;125.87;;;;;;;;;;5019441;28;20189;-93
2023/09/05 04:22:03;;;;;;;131.17;126.87;;;;;;;;;;5018429;28;20194;-90
2023/09/05 04:24:29;;;;;;;132.23;128.10;;;;;;;;;;5016220;28;20186;-92
2023/09/05 04:26:55;;;;;;;138.53;134.10;;;;;;;;;;5017968;28;20244;-92
2023/09/05 04:29:21;;;;;;;133.13;128.93;;;;;;;;;;5016515;28;20243;-92
2023/09/05 04:31:47;;;;;;;132.77;128.67;;;;;;;;;;5018999;28;20202;-91
2023/09/05 04:34:13;;;;;;;127.43;123.13;;;;;;;;;;5018839;28;20181;-92
2023/09/05 04:36:39;;;;;;;123.57;119.60;;;;;;;;;;5017241;28;20216;-92
2023/09/05 04:39:05;;;;;;;124.13;120.27;;;;;;;;;;5020761;28;20182;-92
2023/09/05 04:41:31;;;;;;;139.27;135.07;;;;;;;;;;5034853;28;20222;-92
2023/09/05 04:43:57;;;;;;;125.40;121.37;;;;;;;;;;5034537;28;20175;-91
2023/09/05 04:46:23;;;;;;;130.77;126.70;;;;;;;;;;5033089;28;20194;-92
2023/09/05 04:48:49;;;;;;;125.83;121.90;;;;;;;;;;5026590;28;20186;-90
2023/09/05 04:51:15;;;;;;;145.80;141.37;;;;;;;;;;5025685;28;20230;-92
2023/09/05 04:53:42;;;;;;;144.10;139.50;;;;;;;;;;5023292;28;20647;-91
2023/09/05 04:56:08;;;;;;;152.13;147.13;;;;;;;;;;5023512;28;20216;-91
2023/09/05 04:58:34;;;;;;;137.50;133.23;;;;;;;;;;5020273;28;20197;-91
2023/09/05 05:01:04;;;;;;;135.73;131.53;;;;;;;;;;5021151;28;20193;-91
2023/09/05 05:03:31;;;;;;;139.43;135.13;;;;;;;;;;5020291;28;20177;-90
2023/09/05 05:05:57;;;;;;;135.60;131.30;;;;;;;;;;5021317;28;20197;-90
2023/09/05 05:08:23;;;;;;;139.50;135.07;;;;;;;;;;5022048;28;20229;-91
2023/09/05 05:10:49;;;;;;;145.37;140.80;;;;;;;;;;5037665;28;20261;-91
2023/09/05 05:13:15;;;;;;;154.83;150.13;;;;;;;;;;5035566;28;20188;-93
2023/09/05 05:15:43;;;;;;;140.77;136.33;;;;;;;;;;5014719;28;20213;-93
2023/09/05 05:18:09;;;;;;;147.03;142.53;;;;;;;;;;5014540;28;20203;-91
2023/09/05 05:20:35;;;;;;;155.17;150.17;;;;;;;;;;5007820;28;20222;-92
2023/09/05 05:23:01;;;;;;;152.67;148.07;;;;;;;;;;5021510;28;20206;-93
2023/09/05 05:25:27;;;;;;;150.43;145.73;;;;;;;;;;5023150;28;20202;-91
2023/09/05 05:27:53;;;;;;;144.43;139.93;;;;;;;;;;5012767;28;20193;-92
2023/09/05 05:30:19;;;;;;;142.93;138.57;;;;;;;;;;5004275;28;20289;-91
2023/09/05 05:32:47;;;;;;;136.87;132.67;;;;;;;;;;5021658;28;20185;-91
2023/09/05 05:35:13;;;;;;;139.07;134.63;;;;;;;;;;5014653;28;20272;-91
2023/09/05 05:37:39;;;;;;;147.37;142.83;;;;;;;;;;4996199;28;20201;-89
2023/09/05 05:40:05;;;;;;;141.37;136.83;;;;;;;;;;5000926;28;20267;-90
2023/09/05 05:42:31;;;;;;;142.30;137.80;;;;;;;;;;5016845;28;20181;-90
2023/09/05 05:44:57;;;;;;;141.50;137.10;;;;;;;;;;5005004;28;20275;-91
2023/09/05 05:47:24;;;;;;;146.07;141.37;;;;;;;;;;5003530;28;20205;-90
2023/09/05 05:49:50;;;;;;;133.33;129.03;;;;;;;;;;5000065;28;20213;-91
2023/09/05 05:52:16;;;;;;;134.80;130.40;;;;;;;;;;4997991;28;20198;-90
2023/09/05 05:54:42;;;;;;;145.77;141.07;;;;;;;;;;5001863;28;20252;-91
2023/09/05 05:57:08;;;;;;;152.87;148.13;;;;;;;;;;5000016;28;20209;-92
2023/09/05 05:59:34;;;;;;;153.47;148.77;;;;;;;;;;4999260;28;20270;-91
2023/09/05 06:02:00;;;;;;;151.10;146.50;;;;;;;;;;5000251;28;20819;-91
2023/09/05 06:04:26;;;;;;;148.00;143.37;;;;;;;;;;5000589;28;20197;-90
2023/09/05 06:06:53;;;;;;;147.70;143.07;;;;;;;;;;4996816;28;20199;-91
2023/09/05 06:09:18;;;;;;;145.23;140.73;;;;;;;;;;4996094;28;20197;-92
2023/09/05 06:11:45;;;;;;;149.67;145.13;;;;;;;;;;4998671;28;20765;-92
2023/09/05 06:14:12;;;;;;;150.83;146.20;;;;;;;;;;5001105;28;20180;-90
2023/09/05 06:16:38;;;;;;;156.60;151.77;;;;;;;;;;4996387;28;20224;-91
2023/09/05 06:19:04;;;;;;;173.73;168.57;;;;;;;;;;4998527;28;20195;-90
2023/09/05 06:21:30;;;;;;;177.17;171.80;;;;;;;;;;4998923;28;20298;-91
2023/09/05 06:23:55;;;;;;;184.60;179.10;;;;;;;;;;4993604;28;20231;-91
2023/09/05 06:26:21;;;;;;;203.70;197.70;;;;;;;;;;5001300;28;20202;-92
2023/09/05 06:28:48;;;;;;;225.33;218.83;;;;;;;;;;4998707;28;20187;-91
2023/09/05 06:31:15;;;;;;;251.27;244.05;;;;;;;;;;4994509;28;20987;-90
2023/09/05 06:33:41;;;;;;;239.52;232.68;;;;;;;;;;5000708;28;20198;-90
2023/09/05 06:36:07;;;;;;;264.95;257.35;;;;;;;;;;4997456;28;20215;-93
2023/09/05 06:38:34;;;;;;;272.05;264.08;;;;;;;;;;4990960;28;20197;-90
2023/09/05 06:41:09;;;;;;;286.17;277.88;;;;;;;;;;4999281;28;20569;-92
2023/09/05 06:43:36;;;;;;;291.30;282.90;;;;;;;;;;4998970;28;20204;-90
2023/09/05 06:46:06;;;;;;;284.67;276.30;;;;;;;;;;5003578;28;20275;-92
2023/09/05 06:48:32;;;;;;;244.65;237.55;;;;;;;;;;4998371;28;20261;-92
2023/09/05 06:50:58;;;;;;;235.68;228.90;;;;;;;;;;4997631;28;20259;-92
2023/09/05 06:53:25;;;;;;;218.40;211.93;;;;;;;;;;4998956;28;20203;-92
2023/09/05 06:55:51;;;;;;;221.30;214.70;;;;;;;;;;4998743;28;20243;-92
2023/09/05 06:58:18;;;;;;;238.65;231.68;;;;;;;;;;4996332;28;20295;-91
2023/09/05 07:00:45;;;;;;;217.30;210.88;;;;;;;;;;4995908;28;20217;-92
2023/09/05 07:03:12;;;;;;;219.10;212.60;;;;;;;;;;4995551;28;20189;-92
2023/09/05 07:05:40;;;;;;;250.05;242.70;;;;;;;;;;4998503;28;20193;-91
2023/09/05 07:08:06;;;;;;;208.90;202.85;;;;;;;;;;4998828;28;20235;-91
2023/09/05 07:10:32;;;;;;;217.50;211.15;;;;;;;;;;5002650;28;20213;-91
2023/09/05 07:12:58;;;;;;;234.45;227.50;;;;;;;;;;4999771;28;20276;-93
2023/09/05 07:15:24;;;;;;;217.23;210.15;;;;;;;;;;5003117;28;20214;-92
2023/09/05 07:17:51;;;;;;;218.02;211.77;;;;;;;;;;4996316;28;20186;-90
2023/09/05 07:20:17;;;;;;;227.02;220.25;;;;;;;;;;5011811;28;20233;-93
2023/09/05 07:22:43;;;;;;;242.05;234.77;;;;;;;;;;5007565;28;20282;-90
2023/09/05 07:25:09;;;;;;;247.30;240.25;;;;;;;;;;5011413;28;20327;-91
2023/09/05 07:27:35;;;;;;;242.68;235.82;;;;;;;;;;5010521;28;20627;-92
2023/09/05 07:30:01;;;;;;;254.50;247.35;;;;;;;;;;5006183;28;20705;-91
2023/09/05 07:32:27;;;;;;;239.20;232.32;;;;;;;;;;5004955;28;20227;-89
2023/09/05 07:34:54;;;;;;;260.30;252.85;;;;;;;;;;4998568;28;20197;-91
2023/09/05 07:37:20;;;;;;;263.80;256.27;;;;;;;;;;5010806;28;20229;-92
2023/09/05 07:39:50;;;;;;;266.15;258.33;;;;;;;;;;5009633;28;20193;-90
2023/09/05 07:42:16;;;;;;;257.20;249.95;;;;;;;;;;5012115;28;20189;-90
2023/09/05 07:44:42;;;;;;;261.10;253.75;;;;;;;;;;5005212;28;20240;-92
2023/09/05 07:47:08;;;;;;;273.15;265.25;;;;;;;;;;5012873;28;20185;-90
2023/09/05 07:49:38;;;;;;;275.15;267.13;;;;;;;;;;5007371;28;20182;-91
2023/09/05 07:52:04;;;;;;;270.60;262.85;;;;;;;;;;5010853;28;20196;-92
2023/09/05 07:54:30;;;;;;;298.52;289.48;;;;;;;;;;5012720;28;20190;-90
2023/09/05 07:56:56;;;;;;;299.45;290.83;;;;;;;;;;5011601;28;20241;-91
2023/09/05 07:59:23;;;;;;;350.55;340.35;;;;;;;;;;5009840;28;20181;-91
2023/09/05 08:01:49;;;;;;;328.83;319.08;;;;;;;;;;5010448;28;20343;-90
2023/09/05 08:04:15;;;;;;;346.30;336.23;;;;;;;;;;5008184;28;20440;-91
2023/09/05 08:06:42;;;;;;;351.40;341.00;;;;;;;;;;5010959;28;20599;-90
2023/09/05 08:09:08;;;;;;;384.58;372.83;;;;;;;;;;5011821;28;20191;-91
2023/09/05 08:11:34;;;;;;;381.35;370.05;;;;;;;;;;5012002;28;20209;-92
2023/09/05 08:14:00;;;;;;;359.48;348.98;;;;;;;;;;5010472;28;20185;-92
2023/09/05 08:16:27;;;;;;;389.17;377.80;;;;;;;;;;5011516;28;20248;-93
2023/09/05 08:18:53;;;;;;;373.83;362.70;;;;;;;;;;5008818;28;20252;-91
2023/09/05 08:21:20;;;;;;;1999.90;999.90;;;;;;;;;;5005111;28;20206;-92
2023/09/05 08:23:49;;;;;;;362.83;352.17;;;;;;;;;;5008332;28;20232;-90
2023/09/05 08:26:16;;;;;;;1999.90;999.90;;;;;;;;;;5012358;28;20529;-90
2023/09/05 08:28:44;;;;;;;1594.43;841.67;;;;;;;;;;4994204;28;20182;-91
2023/09/05 08:31:14;;;;;;;1999.90;999.90;;;;;;;;;;5009713;28;20351;-92
2023/09/05 08:33:40;;;;;;;390.42;378.88;;;;;;;;;;5000083;28;20292;-93
2023/09/05 08:36:08;;;;;;;1193.95;688.33;;;;;;;;;;5013508;28;20478;-91
2023/09/05 08:38:35;;;;;;;1999.90;999.90;;;;;;;;;;5013981;28;20655;-93
2023/09/05 08:41:01;;;;;;;1999.90;999.90;;;;;;;;;;5016182;28;20216;-93
2023/09/05 08:43:28;;;;;;;1999.90;999.90;;;;;;;;;;5015990;28;20761;-91
2023/09/05 08:45:55;;;;;;;1999.90;999.90;;;;;;;;;;5026682;28;20245;-91
2023/09/05 08:48:21;;;;;;;1999.90;999.90;;;;;;;;;;5012436;28;20666;-91
2023/09/05 08:50:48;;;;;;;1999.90;999.90;;;;;;;;;;5006750;28;20211;-91
2023/09/05 08:53:16;;;;;;;1999.90;999.90;;;;;;;;;;4999838;28;20202;-91
2023/09/05 08:55:43;;;;;;;1999.90;999.90;;;;;;;;;;5001024;28;20279;-90
2023/09/05 08:58:13;;;;;;;1999.90;999.90;;;;;;;;;;5006409;28;20265;-91
2023/09/05 09:00:40;;;;;;;1999.90;999.90;;;;;;;;;;5012632;28;20205;-92
2023/09/05 09:03:06;;;;;;;1999.90;999.90;;;;;;;;;;5001472;28;20189;-92
2023/09/05 09:05:33;;;;;;;1999.90;999.90;;;;;;;;;;5007622;28;20216;-92
2023/09/05 09:07:59;;;;;;;1999.90;999.90;;;;;;;;;;5013237;28;20205;-90
2023/09/05 09:10:25;;;;;;;1999.90;999.90;;;;;;;;;;5000935;28;20217;-91
2023/09/05 09:12:54;;;;;;;1999.90;999.90;;;;;;;;;;5008566;28;20190;-91
2023/09/05 09:15:20;;;;;;;1999.90;999.90;;;;;;;;;;5008748;28;20221;-92
2023/09/05 09:17:47;;;;;;;1999.90;999.90;;;;;;;;;;5015213;28;20185;-92
2023/09/05 09:20:13;;;;;;;1999.90;999.90;;;;;;;;;;5006511;28;20297;-92
2023/09/05 09:22:40;;;;;;;1999.90;999.90;;;;;;;;;;5003247;28;20206;-92
2023/09/05 09:25:22;;;;;;;1999.90;999.90;;;;;;;;;;5007000;28;20196;-91
2023/09/05 09:27:55;;;;;;;1999.90;999.90;;;;;;;;;;5009387;28;20186;-91
2023/09/05 09:30:22;;;;;;;1999.90;999.90;;;;;;;;;;5015709;28;20248;-93
2023/09/05 09:32:50;;;;;;;1999.90;999.90;;;;;;;;;;5007439;28;20317;-92
2023/09/05 09:35:16;;;;;;;1999.90;999.90;;;;;;;;;;5008221;28;20186;-90
2023/09/05 09:37:45;;;;;;;1999.90;999.90;;;;;;;;;;5001257;28;20304;-92
2023/09/05 09:40:12;;;;;;;1999.90;999.90;;;;;;;;;;5012202;28;20237;-94
2023/09/05 09:42:38;;;;;;;1999.90;999.90;;;;;;;;;;5013355;28;20217;-91
2023/09/05 09:45:10;;;;;;;1999.90;999.90;;;;;;;;;;5009837;28;20194;-91
2023/09/05 09:47:39;;;;;;;1999.90;999.90;;;;;;;;;;4999644;28;20272;-91
2023/09/05 09:50:06;;;;;;;1999.90;999.90;;;;;;;;;;4991268;28;20209;-93
2023/09/05 09:52:34;;;;;;;1999.90;999.90;;;;;;;;;;5008781;28;20552;-92
2023/09/05 09:55:03;;;;;;;1999.90;999.90;;;;;;;;;;5012515;28;20244;-91
2023/09/05 09:57:40;;;;;;;1999.90;999.90;;;;;;;;;;5002690;28;20201;-92
2023/09/05 10:00:11;;;;;;;1999.90;999.90;;;;;;;;;;5006975;28;20205;-93
2023/09/05 10:02:43;;;;;;;1999.90;999.90;;;;;;;;;;5007790;28;20189;-92
2023/09/05 10:05:10;;;;;;;1999.90;999.90;;;;;;;;;;5009599;28;20194;-91
2023/09/05 10:07:36;;;;;;;1999.90;999.90;;;;;;;;;;5008114;28;20220;-91
2023/09/05 10:10:04;;;;;;;1999.90;999.90;;;;;;;;;;5005598;28;20202;-91
2023/09/05 10:12:30;;;;;;;1999.90;999.90;;;;;;;;;;5009285;28;20209;-91
2023/09/05 10:14:57;;;;;;;1999.90;999.90;;;;;;;;;;5001791;28;20189;-93
2023/09/05 10:17:24;;;;;;;1999.90;999.90;;;;;;;;;;5006357;28;20277;-92
2023/09/05 10:19:50;;;;;;;1999.90;999.90;;;;;;;;;;4998001;28;20200;-93
2023/09/05 10:22:18;;;;;;;1999.90;999.90;;;;;;;;;;5011936;28;20254;-91
2023/09/05 10:24:44;;;;;;;1999.90;999.90;;;;;;;;;;5008475;28;20193;-92
2023/09/05 10:27:11;;;;;;;1999.90;999.90;;;;;;;;;;5016272;28;20233;-91
2023/09/05 10:29:42;;;;;;;1999.90;999.90;;;;;;;;;;5017009;28;20213;-92
2023/09/05 10:32:09;;;;;;;1999.90;999.90;;;;;;;;;;5008937;28;20652;-92
2023/09/05 10:34:47;;;;;;;1999.90;999.90;;;;;;;;;;5008045;28;20201;-91
2023/09/05 10:37:13;;;;;;;1999.90;999.90;;;;;;;;;;5001424;28;20331;-93
2023/09/05 10:39:47;;;;;;;1999.90;999.90;;;;;;;;;;5000783;28;20197;-92
2023/09/05 10:42:13;;;;;;;1999.90;999.90;;;;;;;;;;4994496;28;20193;-93
2023/09/05 10:44:42;;;;;;;1999.90;999.90;;;;;;;;;;4996956;28;20217;-94
2023/09/05 10:47:28;;;;;;;1999.90;999.90;;;;;;;;;;5004395;28;20201;-91
2023/09/05 10:49:58;;;;;;;1999.90;999.90;;;;;;;;;;5001609;28;20446;-92
2023/09/05 10:52:27;;;;;;;1999.90;999.90;;;;;;;;;;5000609;28;20224;-93
2023/09/05 10:54:53;;;;;;;1999.90;999.90;;;;;;;;;;4999228;28;20190;-94
2023/09/05 10:57:35;;;;;;;1999.90;999.90;;;;;;;;;;4999921;28;20212;-93
2023/09/05 11:00:28;;;;;;;1999.90;999.90;;;;;;;;;;4996803;28;20214;-92
2023/09/05 11:02:56;;;;;;;1999.90;999.90;;;;;;;;;;5001787;28;20177;-92
2023/09/05 11:05:26;;;;;;;1999.90;999.90;;;;;;;;;;5002217;28;20189;-92
2023/09/05 11:07:55;;;;;;;1999.90;999.90;;;;;;;;;;5001552;28;20181;-92
2023/09/05 11:10:34;;;;;;;1999.90;999.90;;;;;;;;;;5000617;28;20779;-93
2023/09/05 11:13:11;;;;;;;1999.90;999.90;;;;;;;;;;5002461;28;20194;-94
2023/09/05 11:15:43;;;;;;;1999.90;999.90;;;;;;;;;;5005373;28;20205;-94
2023/09/05 11:18:11;;;;;;;1999.90;999.90;;;;;;;;;;4996100;28;20182;-91
2023/09/05 11:20:41;;;;;;;1999.90;999.90;;;;;;;;;;4999823;28;21096;-93
2023/09/05 11:23:21;;;;;;;1999.90;999.90;;;;;;;;;;4999349;28;20217;-91
2023/09/05 11:25:50;;;;;;;1999.90;999.90;;;;;;;;;;4994913;28;20327;-94
2023/09/05 11:28:17;;;;;;;1999.90;999.90;;;;;;;;;;4999467;28;20194;-94
2023/09/05 11:30:45;;;;;;;1999.90;999.90;;;;;;;;;;4999111;28;20209;-93
2023/09/05 11:33:15;;;;;;;1999.90;999.90;;;;;;;;;;5000048;28;20198;-94
2023/09/05 11:35:44;;;;;;;1999.90;999.90;;;;;;;;;;5001929;28;20220;-93
2023/09/05 11:38:11;;;;;;;1999.90;999.90;;;;;;;;;;4993028;28;20190;-94
2023/09/05 11:40:38;;;;;;;1999.90;999.90;;;;;;;;;;4999243;28;20225;-93
2023/09/05 11:43:09;;;;;;;1999.90;999.90;;;;;;;;;;4997827;28;20446;-91
2023/09/05 11:45:37;;;;;;;1999.90;999.90;;;;;;;;;;4999578;28;20210;-94
2023/09/05 11:48:04;;;;;;;1999.90;999.90;;;;;;;;;;4997341;28;20205;-92
2023/09/05 11:50:31;;;;;;;1999.90;999.90;;;;;;;;;;5000056;28;20256;-94
2023/09/05 11:52:58;;;;;;;1999.90;999.90;;;;;;;;;;5001550;28;20498;-92
2023/09/05 11:55:25;;;;;;;1999.90;999.90;;;;;;;;;;5003780;28;20198;-93
2023/09/05 11:57:54;;;;;;;1999.90;999.90;;;;;;;;;;5002407;28;20190;-93
2023/09/05 12:00:22;;;;;;;1999.90;999.90;;;;;;;;;;5002309;28;20197;-92
2023/09/05 12:02:48;;;;;;;1999.90;999.90;;;;;;;;;;5000035;28;20690;-92
2023/09/05 12:05:15;;;;;;;1999.90;999.90;;;;;;;;;;4998151;28;20194;-93
2023/09/05 12:07:41;;;;;;;1999.90;999.90;;;;;;;;;;5004437;28;20178;-94
2023/09/05 12:10:09;;;;;;;1999.90;999.90;;;;;;;;;;4997569;28;20221;-94
2023/09/05 12:12:35;;;;;;;1999.90;999.90;;;;;;;;;;4995359;28;20185;-93
2023/09/05 12:15:01;;;;;;;1999.90;999.90;;;;;;;;;;5000258;28;20191;-93
2023/09/05 12:17:27;;;;;;;1999.90;999.90;;;;;;;;;;5001747;28;20210;-92
2023/09/05 12:19:55;;;;;;;1999.90;999.90;;;;;;;;;;4995533;28;20597;-94
2023/09/05 12:22:22;;;;;;;1999.90;999.90;;;;;;;;;;5001244;28;20229;-91
2023/09/05 12:24:48;;;;;;;1999.90;999.90;;;;;;;;;;4997893;28;20652;-94
2023/09/05 12:27:24;;;;;;;1999.90;999.90;;;;;;;;;;4999074;28;20199;-94
2023/09/05 12:29:52;;;;;;;1999.90;999.90;;;;;;;;;;4998839;28;20197;-93
2023/09/05 12:32:18;;;;;;;1999.90;999.90;;;;;;;;;;5000919;28;20190;-93
2023/09/05 12:34:45;;;;;;;1999.90;999.90;;;;;;;;;;5000549;28;20190;-95
2023/09/05 12:37:11;;;;;;;1999.90;999.90;;;;;;;;;;4998079;28;20238;-94
2023/09/05 12:39:37;;;;;;;1999.90;999.90;;;;;;;;;;4983642;28;20193;-94
2023/09/05 12:42:03;;;;;;;1999.90;999.90;;;;;;;;;;4999967;28;20194;-92
2023/09/05 12:44:30;;;;;;;1999.90;999.90;;;;;;;;;;4989116;28;20198;-92
2023/09/05 12:46:56;;;;;;;1999.90;999.90;;;;;;;;;;5000877;28;20190;-94
2023/09/05 12:49:22;;;;;;;1999.90;999.90;;;;;;;;;;4998520;28;20244;-92
2023/09/05 12:51:49;;;;;;;1999.90;999.90;;;;;;;;;;4996150;28;20402;-92
2023/09/05 12:54:16;;;;;;;1999.90;999.90;;;;;;;;;;4998571;28;20511;-93
2023/09/05 12:56:44;;;;;;;1999.90;999.90;;;;;;;;;;5011430;28;20202;-92
2023/09/05 12:59:10;;;;;;;1999.90;999.90;;;;;;;;;;5009232;28;20214;-96
2023/09/05 13:01:36;;;;;;;1999.90;999.90;;;;;;;;;;5003190;28;20491;-93
2023/09/05 13:04:03;;;;;;;1999.90;999.90;;;;;;;;;;5006557;28;20679;-93
2023/09/05 13:06:29;;;;;;;1999.90;999.90;;;;;;;;;;5000885;28;20174;-93
2023/09/05 13:08:55;;;;;;;1999.90;999.90;;;;;;;;;;5006348;28;20185;-94
2023/09/05 13:11:21;;;;;;;1999.90;999.90;;;;;;;;;;4995818;28;20592;-93
2023/09/05 13:13:47;;;;;;;1999.90;999.90;;;;;;;;;;4997173;28;20194;-93
2023/09/05 13:16:13;;;;;;;1999.90;999.90;;;;;;;;;;4991270;28;20210;-91
2023/09/05 13:18:39;;;;;;;1999.90;999.90;;;;;;;;;;4993003;28;20192;-94
2023/09/05 13:21:06;;;;;;;1999.90;999.90;;;;;;;;;;4995020;28;20210;-90
2023/09/05 13:23:32;;;;;;;1999.90;999.90;;;;;;;;;;4995195;28;20206;-90
2023/09/05 13:25:59;;;;;;;1999.90;999.90;;;;;;;;;;4994473;28;20672;-91
2023/09/05 13:28:26;;;;;;;1999.90;999.90;;;;;;;;;;4992384;28;20668;-92
2023/09/05 13:30:52;;;;;;;1999.90;999.90;;;;;;;;;;4992735;28;20224;-91
2023/09/05 13:33:18;;;;;;;1999.90;999.90;;;;;;;;;;4992910;28;20194;-90
2023/09/05 13:35:44;;;;;;;1999.90;999.90;;;;;;;;;;4997494;28;20209;-92
2023/09/05 13:38:12;;;;;;;1999.90;999.90;;;;;;;;;;4995832;28;20221;-92
2023/09/05 13:40:38;;;;;;;1999.90;999.90;;;;;;;;;;4991339;28;20205;-92
2023/09/05 13:43:04;;;;;;;1999.90;999.90;;;;;;;;;;4997729;28;20190;-92
2023/09/05 13:45:33;;;;;;;1999.90;999.90;;;;;;;;;;5000292;28;20268;-93
2023/09/05 13:48:00;;;;;;;1999.90;999.90;;;;;;;;;;4999948;28;20256;-94